< < Back
Terminal Aerodrome Forecast


Current Version              Previous Versions:   1  2  3  4  5  6  7  8  9  

Terminal Aerodrome Forecast

441
FTUS42 KJAX 311100
TAFGNV
TAF
KGNV 311120Z 3112/0112 31008KT P6SM FEW040
     FM312300 27005KT P6SM SKC
     FM010900 29013G26KT P6SM FEW035=



Latest METAR

237
SAUS70 KWBC 311500 RRG
MTRGNV
METAR KGNV 311453Z 32005KT 10SM FEW014 19/15 A2991 RMK AO2 SLP126
T01890150 50005


USA.gov is the U.S. government's official web portal to all federal, state and local government web resources and services.